Time;durP1;ratioP1;P1;durP2;ratioP2;P2;SDS_P1;SDS_P2;PMS_P1;PMS_P2;Temp;Humidity;BMP_temperature;BMP_pressure;BME280_temperature;BME280_humidity;BME280_pressure;Samples;Min_cycle;Max_cycle;Signal;HPM_P1;HPM_P2
2023/10/18 00:00:32;;;;;;;;;;;11.40;49.30;;;;;;5028566;27;114283;-80
2023/10/18 00:03:03;;;;;;;;;;;11.40;49.30;;;;;;5013540;28;114294;-80
2023/10/18 00:05:31;;;;;;;;;;;11.40;49.30;;;;;;5025912;28;117175;-80
2023/10/18 00:07:59;;;;;;;;;;;11.40;49.30;;;;;;5027585;28;114493;-80
2023/10/18 00:10:27;;;;;;;;;;;11.40;49.20;;;;;;5026900;28;114538;-79
2023/10/18 00:12:56;;;;;;;;;;;11.40;49.10;;;;;;5010810;28;114403;-80
2023/10/18 00:15:23;;;;;;;;;;;11.30;48.30;;;;;;5026093;28;114880;-80
2023/10/18 00:17:50;;;;;;;;;;;11.20;49.00;;;;;;5025649;28;114840;-80
2023/10/18 00:20:23;;;;;;;;;;;11.10;49.20;;;;;;5026782;28;114222;-79
2023/10/18 00:22:51;;;;;;;;;;;11.10;49.30;;;;;;5028262;27;114309;-79
2023/10/18 00:25:20;;;;;;;;;;;11.20;49.30;;;;;;5026215;28;114962;-80
2023/10/18 00:27:47;;;;;;;;;;;11.20;49.10;;;;;;5027967;28;114581;-79
2023/10/18 00:30:20;;;;;;;;;;;11.20;49.20;;;;;;5027582;28;114035;-80
2023/10/18 00:32:47;;;;;;;;;;;11.20;49.00;;;;;;5010872;28;114372;-79
2023/10/18 00:35:20;;;;;;;;;;;11.20;49.00;;;;;;5025565;28;114533;-79
2023/10/18 00:37:49;;;;;;;;;;;11.10;49.00;;;;;;5026207;28;114688;-79
2023/10/18 00:42:53;;;;;;;;;;;11.20;49.20;;;;;;5027034;28;114327;-80
2023/10/18 00:45:23;;;;;;;;;;;11.20;48.90;;;;;;5027111;28;114954;-79
2023/10/18 00:47:50;;;;;;;;;;;11.00;48.80;;;;;;5026202;28;114711;-79
2023/10/18 00:50:27;;;;;;;;;;;11.00;49.10;;;;;;5027443;28;114170;-80
2023/10/18 00:52:54;;;;;;;;;;;11.00;49.20;;;;;;5027810;28;114480;-80
2023/10/18 00:55:22;;;;;;;;;;;10.90;48.90;;;;;;5025844;28;115505;-80
2023/10/18 00:57:49;;;;;;;;;;;10.90;49.20;;;;;;5025457;28;114729;-79
2023/10/18 01:00:19;;;;;;;;;;;11.00;49.30;;;;;;5025795;28;114149;-78
2023/10/18 01:02:49;;;;;;;;;;;11.00;49.30;;;;;;5027270;28;114321;-79
2023/10/18 01:05:16;;;;;;;;;;;11.10;49.30;;;;;;5026734;28;115383;-80
2023/10/18 01:07:46;;;;;;;;;;;11.10;49.30;;;;;;5026863;28;114569;-80
2023/10/18 01:10:13;;;;;;;;;;;11.20;49.30;;;;;;5027542;27;114549;-80
2023/10/18 01:12:40;;;;;;;;;;;11.20;49.30;;;;;;5027528;27;114574;-80
2023/10/18 01:15:07;;;;;;;;;;;11.20;49.30;;;;;;5026515;28;114951;-80
2023/10/18 01:17:42;;;;;;;;;;;11.20;49.40;;;;;;5026491;28;114526;-79
2023/10/18 01:20:33;;;;;;;;;;;11.20;49.20;;;;;;5027308;28;114511;-80
2023/10/18 01:23:01;;;;;;;;;;;11.20;49.30;;;;;;5027258;28;114431;-81
2023/10/18 01:25:29;;;;;;;;;;;11.20;49.20;;;;;;5026003;28;114847;-81
2023/10/18 01:27:58;;;;;;;;;;;11.20;49.20;;;;;;5025313;27;117865;-81
2023/10/18 01:30:26;;;;;;;;;;;11.20;49.20;;;;;;5027284;28;114283;-81
2023/10/18 01:32:54;;;;;;;;;;;11.10;49.20;;;;;;5026070;27;114460;-81
2023/10/18 01:35:21;;;;;;;;;;;11.20;49.30;;;;;;5025581;28;115047;-80
2023/10/18 01:37:50;;;;;;;;;;;11.20;49.30;;;;;;5024764;28;114732;-80
2023/10/18 01:42:56;;;;;;;;;;;11.20;49.20;;;;;;5027549;27;114166;-82
2023/10/18 01:45:30;;;;;;;;;;;11.20;49.20;;;;;;5016372;28;115397;-79
2023/10/18 01:47:57;;;;;;;;;;;11.20;49.20;;;;;;5005815;28;114519;-79
2023/10/18 01:50:26;;;;;;;;;;;11.20;48.80;;;;;;4988665;28;114032;-79
2023/10/18 01:52:53;;;;;;;;;;;10.90;48.80;;;;;;5005899;28;114323;-79
2023/10/18 01:55:20;;;;;;;;;;;10.90;49.10;;;;;;5005957;28;114882;-80
2023/10/18 01:57:48;;;;;;;;;;;11.00;49.30;;;;;;5005873;28;114656;-79
2023/10/18 02:00:18;;;;;;;;;;;11.00;49.20;;;;;;5005960;28;114156;-79
2023/10/18 02:02:48;;;;;;;;;;;10.90;49.00;;;;;;5005908;28;114300;-79
2023/10/18 02:05:16;;;;;;;;;;;10.90;49.30;;;;;;5004999;28;115439;-81
2023/10/18 02:07:47;;;;;;;;;;;11.00;49.30;;;;;;5005244;28;114627;-79
2023/10/18 02:10:23;;;;;;;;;;;11.00;49.40;;;;;;5005547;28;114351;-80
2023/10/18 02:12:51;;;;;;;;;;;11.10;49.20;;;;;;5006792;28;114434;-80
2023/10/18 02:15:18;;;;;;;;;;;11.00;49.20;;;;;;5003634;28;115336;-80
2023/10/18 02:17:46;;;;;;;;;;;11.10;49.20;;;;;;5004129;28;114678;-80
2023/10/18 02:20:25;;;;;;;;;;;11.00;49.20;;;;;;5005224;28;114347;-79
2023/10/18 02:22:59;;;;;;;;;;;11.10;49.30;;;;;;5006352;28;114208;-81
2023/10/18 02:28:23;;;;;;;;;;;11.10;49.30;;;;;;5008804;27;114695;-80
2023/10/18 02:30:55;;;;;;;;;;;11.10;49.30;;;;;;5006380;28;114315;-80
2023/10/18 02:33:26;;;;;;;;;;;11.10;49.30;;;;;;5005555;28;114490;-80
2023/10/18 02:35:57;;;;;;;;;;;11.20;49.30;;;;;;5005313;28;114644;-80
2023/10/18 02:38:26;;;;;;;;;;;11.20;49.30;;;;;;5004474;28;114656;-80
2023/10/18 02:40:56;;;;;;;;;;;11.20;49.30;;;;;;5004447;28;114281;-79
2023/10/18 02:43:24;;;;;;;;;;;11.20;49.20;;;;;;5006358;28;114267;-79
2023/10/18 02:45:51;;;;;;;;;;;11.20;49.20;;;;;;5007712;28;115147;-79
2023/10/18 02:48:24;;;;;;;;;;;11.20;49.10;;;;;;5007594;28;114661;-79
2023/10/18 02:50:57;;;;;;;;;;;11.10;49.20;;;;;;5009701;28;114214;-79
2023/10/18 02:53:24;;;;;;;;;;;11.10;49.20;;;;;;4992761;28;114430;-79
2023/10/18 02:55:55;;;;;;;;;;;11.10;49.30;;;;;;5007469;28;114970;-80
2023/10/18 02:58:27;;;;;;;;;;;11.10;49.40;;;;;;4991834;28;114704;-80
2023/10/18 03:00:55;;;;;;;;;;;11.10;49.40;;;;;;4992292;28;114963;-80
2023/10/18 03:03:22;;;;;;;;;;;11.20;49.30;;;;;;5008256;28;114483;-80
2023/10/18 03:05:51;;;;;;;;;;;11.20;49.40;;;;;;5008157;28;115999;-80
2023/10/18 03:08:20;;;;;;;;;;;11.20;49.40;;;;;;5008782;28;114635;-79
2023/10/18 03:10:51;;;;;;;;;;;11.20;49.30;;;;;;5009818;28;114298;-80
2023/10/18 03:13:23;;;;;;;;;;;11.20;49.40;;;;;;5008079;28;114311;-80
2023/10/18 03:16:15;;;;;;;;;;;11.20;49.30;;;;;;5007441;28;114892;-80
2023/10/18 03:18:45;;;;;;;;;;;11.20;49.40;;;;;;5006849;28;114470;-80
2023/10/18 03:21:22;;;;;;;;;;;11.20;49.30;;;;;;5008327;28;114187;-80
2023/10/18 03:23:50;;;;;;;;;;;11.20;49.30;;;;;;4993116;28;114696;-81
2023/10/18 03:26:35;;;;;;;;;;;11.20;48.90;;;;;;5006653;28;114836;-81
2023/10/18 03:29:17;;;;;;;;;;;11.10;48.90;;;;;;4991609;28;115208;-79
2023/10/18 03:31:44;;;;;;;;;;;11.00;49.20;;;;;;5006997;28;114500;-77
2023/10/18 03:34:29;;;;;;;;;;;11.00;49.20;;;;;;5008800;28;114282;-79
2023/10/18 03:36:56;;;;;;;;;;;11.00;49.20;;;;;;5007633;28;115504;-79
2023/10/18 03:39:26;;;;;;;;;;;11.00;49.10;;;;;;5007869;28;114454;-79
2023/10/18 03:41:58;;;;;;;;;;;11.00;49.20;;;;;;5008821;28;114235;-80
2023/10/18 03:44:32;;;;;;;;;;;11.00;48.60;;;;;;5008695;28;114111;-80
2023/10/18 03:47:11;;;;;;;;;;;10.80;48.20;;;;;;5007836;28;115029;-80
2023/10/18 03:49:41;;;;;;;;;;;10.70;48.70;;;;;;5006531;28;115124;-80
2023/10/18 03:54:45;;;;;;;;;;;10.70;49.20;;;;;;5007301;28;114367;-80
2023/10/18 03:57:16;;;;;;;;;;;10.70;48.90;;;;;;5005295;28;114908;-79
2023/10/18 03:59:45;;;;;;;;;;;10.70;49.10;;;;;;5006229;28;114598;-80
2023/10/18 04:04:47;;;;;;;;;;;10.70;49.30;;;;;;5007189;28;114387;-79
2023/10/18 04:07:22;;;;;;;;;;;10.80;49.20;;;;;;5008106;28;114929;-79
2023/10/18 04:09:53;;;;;;;;;;;10.80;49.30;;;;;;5006460;28;117731;-79
2023/10/18 04:12:22;;;;;;;;;;;10.80;49.00;;;;;;5007146;28;114329;-80
2023/10/18 04:14:52;;;;;;;;;;;10.80;49.20;;;;;;5007402;28;114311;-78
2023/10/18 04:17:20;;;;;;;;;;;10.80;49.20;;;;;;5006835;28;114982;-80
2023/10/18 04:19:47;;;;;;;;;;;10.80;49.20;;;;;;5007231;28;114485;-80
2023/10/18 04:22:14;;;;;;;;;;;10.90;49.20;;;;;;5007534;28;114390;-79
2023/10/18 04:24:41;;;;;;;;;;;10.90;49.20;;;;;;5008215;28;114318;-79
2023/10/18 04:27:11;;;;;;;;;;;10.80;49.20;;;;;;5007045;28;115411;-79
2023/10/18 04:29:39;;;;;;;;;;;10.90;49.30;;;;;;5006855;28;115080;-78
2023/10/18 04:32:17;;;;;;;;;;;10.90;49.20;;;;;;5007814;28;114405;-78
2023/10/18 04:34:44;;;;;;;;;;;10.90;49.10;;;;;;5006763;28;114564;-79
2023/10/18 04:37:12;;;;;;;;;;;10.80;49.10;;;;;;5006492;28;115378;-79
2023/10/18 04:39:40;;;;;;;;;;;10.80;49.10;;;;;;5007330;28;114653;-80
2023/10/18 04:42:08;;;;;;;;;;;10.80;49.20;;;;;;5006213;28;114162;-80
2023/10/18 04:44:35;;;;;;;;;;;10.80;49.20;;;;;;5006509;28;114463;-79
2023/10/18 04:47:14;;;;;;;;;;;10.80;49.20;;;;;;5006135;28;114881;-79
2023/10/18 04:49:50;;;;;;;;;;;10.80;49.10;;;;;;5006692;28;114952;-79
2023/10/18 04:52:40;;;;;;;;;;;10.80;49.00;;;;;;5006504;28;114393;-79
2023/10/18 04:55:11;;;;;;;;;;;10.80;49.10;;;;;;5007583;28;114167;-79
2023/10/18 04:57:39;;;;;;;;;;;10.80;49.20;;;;;;5005651;28;114977;-79
2023/10/18 05:00:25;;;;;;;;;;;10.80;49.20;;;;;;5006551;28;114982;-78
2023/10/18 05:02:53;;;;;;;;;;;10.80;49.20;;;;;;5007569;28;114373;-78
2023/10/18 05:05:27;;;;;;;;;;;10.80;49.20;;;;;;5007178;28;114524;-78
2023/10/18 05:07:54;;;;;;;;;;;10.80;49.20;;;;;;4988813;28;114795;-78
2023/10/18 05:10:21;;;;;;;;;;;10.80;49.00;;;;;;5005398;28;114881;-78
2023/10/18 05:13:18;;;;;;;;;;;10.80;49.00;;;;;;5007637;28;114055;-78
2023/10/18 05:15:50;;;;;;;;;;;10.80;49.00;;;;;;5007726;28;114257;-78
2023/10/18 05:18:17;;;;;;;;;;;10.80;49.00;;;;;;5006566;28;115233;-78
2023/10/18 05:20:55;;;;;;;;;;;10.80;49.00;;;;;;5006440;28;114316;-79
2023/10/18 05:23:24;;;;;;;;;;;10.80;49.10;;;;;;5023713;28;114296;-79
2023/10/18 05:26:32;;;;;;;;;;;10.80;49.10;;;;;;5017040;28;114322;-79
2023/10/18 05:34:12;;;;;;;;;;;10.80;48.60;;;;;;5014251;28;114491;-80
2023/10/18 05:39:27;;;;;;;;;;;10.70;49.10;;;;;;5013274;28;115169;-78
2023/10/18 05:42:03;;;;;;;;;;;10.80;49.10;;;;;;5013158;28;114796;-78
2023/10/18 05:44:31;;;;;;;;;;;10.90;49.00;;;;;;5014983;28;114337;-78
2023/10/18 05:46:59;;;;;;;;;;;11.00;48.80;;;;;;5014084;28;114375;-78
2023/10/18 05:49:28;;;;;;;;;;;10.90;48.60;;;;;;5014621;28;114950;-79
2023/10/18 05:54:39;;;;;;;;;;;10.80;47.70;;;;;;5027069;28;114634;-79
2023/10/18 05:57:08;;;;;;;;;;;10.80;48.50;;;;;;5027200;27;114338;-80
2023/10/18 05:59:35;;;;;;;;;;;10.90;48.10;;;;;;5024804;28;114868;-79
2023/10/18 06:02:10;;;;;;;;;;;10.90;48.10;;;;;;5026298;28;114721;-81
2023/10/18 06:04:37;;;;;;;;;;;10.90;47.90;;;;;;5025123;28;114097;-79
2023/10/18 06:07:09;;;;;;;;;;;11.00;48.50;;;;;;5026473;27;114197;-80
2023/10/18 06:12:14;;;;;;;;;;;11.40;48.50;;;;;;5017258;28;114648;-81
2023/10/18 06:14:44;;;;;;;;;;;11.60;48.30;;;;;;5015180;28;114581;-80
2023/10/18 06:17:19;;;;;;;;;;;11.70;48.10;;;;;;5026811;27;114361;-79
2023/10/18 06:19:50;;;;;;;;;;;11.80;48.00;;;;;;5017123;28;116133;-79
2023/10/18 06:22:39;;;;;;;;;;;11.90;48.00;;;;;;5043927;27;114257;-80
2023/10/18 06:25:06;;;;;;;;;;;12.10;48.10;;;;;;5030022;27;114355;-80
2023/10/18 06:27:38;;;;;;;;;;;12.20;48.00;;;;;;5027630;28;114593;-80
2023/10/18 06:30:15;;;;;;;;;;;12.30;47.70;;;;;;5008865;28;115014;-80
2023/10/18 06:32:43;;;;;;;;;;;12.30;47.70;;;;;;5010431;28;114437;-80
2023/10/18 06:35:17;;;;;;;;;;;12.40;47.50;;;;;;5018804;28;114228;-81
2023/10/18 06:37:45;;;;;;;;;;;12.50;47.60;;;;;;5024706;28;114370;-80
2023/10/18 06:40:22;;;;;;;;;;;12.60;47.60;;;;;;5005914;28;114948;-80
2023/10/18 06:42:49;;;;;;;;;;;12.70;47.50;;;;;;5007380;28;114617;-81
2023/10/18 06:45:18;;;;;;;;;;;12.70;47.40;;;;;;4982400;28;115786;-80
2023/10/18 06:47:45;;;;;;;;;;;12.90;47.50;;;;;;5009719;28;114086;-80
2023/10/18 06:50:19;;;;;;;;;;;12.90;47.30;;;;;;4990752;28;118776;-80
2023/10/18 06:52:52;;;;;;;;;;;13.00;47.30;;;;;;5008365;28;114754;-80
2023/10/18 06:55:43;;;;;;;;;;;13.10;47.30;;;;;;5008944;28;114419;-81
2023/10/18 06:58:15;;;;;;;;;;;13.20;47.20;;;;;;5018811;28;114265;-81
2023/10/18 07:00:55;;;;;;;;;;;13.20;47.10;;;;;;5010719;28;114875;-79
2023/10/18 07:03:25;;;;;;;;;;;13.30;47.10;;;;;;5018363;28;115698;-79
2023/10/18 07:05:52;;;;;;;;;;;13.40;47.00;;;;;;5029637;27;114183;-80
2023/10/18 07:08:19;;;;;;;;;;;13.40;46.80;;;;;;5029594;27;113992;-80
2023/10/18 07:10:54;;;;;;;;;;;13.40;46.50;;;;;;5009843;28;114849;-80
2023/10/18 07:13:46;;;;;;;;;;;13.40;46.60;;;;;;5011835;28;114829;-80
2023/10/18 07:16:33;;;;;;;;;;;13.50;46.70;;;;;;5008907;28;114158;-80
2023/10/18 07:19:21;;;;;;;;;;;13.50;46.50;;;;;;5007686;28;114511;-80
2023/10/18 07:21:48;;;;;;;;;;;13.60;46.00;;;;;;5007651;28;115078;-80
2023/10/18 07:24:17;;;;;;;;;;;13.60;46.20;;;;;;5008070;28;114575;-80
2023/10/18 07:26:47;;;;;;;;;;;13.50;45.20;;;;;;4991730;28;114174;-80
2023/10/18 07:29:15;;;;;;;;;;;13.50;45.50;;;;;;5008164;28;114943;-79
2023/10/18 07:31:45;;;;;;;;;;;13.40;45.50;;;;;;5039821;27;118080;-79
2023/10/18 07:34:25;;;;;;;;;;;13.40;45.90;;;;;;5023643;28;114555;-80
2023/10/18 07:36:54;;;;;;;;;;;13.40;44.60;;;;;;5008647;28;114359;-81
2023/10/18 07:39:25;;;;;;;;;;;13.10;45.30;;;;;;5009904;28;114405;-80
2023/10/18 07:41:53;;;;;;;;;;;13.20;45.80;;;;;;5007580;28;115520;-81
2023/10/18 07:44:20;;;;;;;;;;;13.20;44.80;;;;;;5006258;28;117211;-80
2023/10/18 07:46:47;;;;;;;;;;;13.00;45.10;;;;;;5008145;28;114092;-80
2023/10/18 07:49:14;;;;;;;;;;;13.10;45.10;;;;;;5008569;28;114031;-80
2023/10/18 07:51:55;;;;;;;;;;;13.10;45.30;;;;;;5022908;28;119086;-80
2023/10/18 07:54:24;;;;;;;;;;;13.10;44.70;;;;;;5007515;28;114945;-80
2023/10/18 07:56:53;;;;;;;;;;;12.90;44.80;;;;;;4990854;28;114183;-79
2023/10/18 07:59:30;;;;;;;;;;;12.90;45.10;;;;;;5007158;28;114317;-81
2023/10/18 08:04:46;;;;;;;;;;;13.10;44.80;;;;;;5039935;27;114564;-79
2023/10/18 08:07:20;;;;;;;;;;;13.10;45.10;;;;;;5007033;28;114758;-79
2023/10/18 08:09:57;;;;;;;;;;;13.20;44.90;;;;;;5008132;28;114265;-80
2023/10/18 08:14:54;;;;;;;;;;;13.10;44.60;;;;;;5007245;28;115000;-80
2023/10/18 08:17:43;;;;;;;;;;;13.00;44.40;;;;;;5007596;28;114637;-80
2023/10/18 08:22:53;;;;;;;;;;;12.40;43.40;;;;;;5005832;28;114965;-79
2023/10/18 08:25:24;;;;;;;;;;;12.20;44.20;;;;;;5006880;28;115021;-81
2023/10/18 08:27:51;;;;;;;;;;;12.20;44.50;;;;;;5006401;28;114423;-79
2023/10/18 08:30:24;;;;;;;;;;;12.20;44.50;;;;;;5008244;28;114345;-80
2023/10/18 08:32:52;;;;;;;;;;;12.20;44.70;;;;;;5021865;28;115908;-79
2023/10/18 08:35:20;;;;;;;;;;;12.30;44.60;;;;;;5006772;28;114849;-80
2023/10/18 08:37:47;;;;;;;;;;;12.20;44.30;;;;;;5007197;28;114306;-80
2023/10/18 08:43:08;;;;;;;;;;;12.10;44.60;;;;;;5039071;27;115532;-79
2023/10/18 08:45:45;;;;;;;;;;;12.10;44.80;;;;;;5006437;28;114955;-79
2023/10/18 08:48:28;;;;;;;;;;;12.10;44.30;;;;;;5006303;28;114509;-80
2023/10/18 08:50:56;;;;;;;;;;;12.00;44.40;;;;;;5005736;28;114408;-79
2023/10/18 08:53:25;;;;;;;;;;;11.90;44.50;;;;;;4988760;28;114954;-80
2023/10/18 08:55:57;;;;;;;;;;;11.80;44.80;;;;;;5005693;28;115170;-80
2023/10/18 08:58:30;;;;;;;;;;;11.90;45.00;;;;;;5007312;28;114399;-80
2023/10/18 09:03:24;;;;;;;;;;;11.90;45.20;;;;;;5021449;28;117665;-79
2023/10/18 09:05:52;;;;;;;;;;;12.10;45.30;;;;;;5004767;28;114970;-80
2023/10/18 09:08:19;;;;;;;;;;;12.20;45.00;;;;;;4989568;28;114476;-81
2023/10/18 09:10:49;;;;;;;;;;;12.40;45.30;;;;;;5006784;28;114273;-79
2023/10/18 09:15:50;;;;;;;;;;;12.50;44.70;;;;;;5006600;28;114415;-80
2023/10/18 09:18:30;;;;;;;;;;;12.60;45.00;;;;;;5006508;28;114346;-79
2023/10/18 09:21:07;;;;;;;;;;;12.70;44.50;;;;;;5007665;28;114189;-80
2023/10/18 09:23:36;;;;;;;;;;;12.80;45.20;;;;;;5005462;28;115239;-80
2023/10/18 09:26:18;;;;;;;;;;;13.00;45.30;;;;;;5022973;27;114652;-80
2023/10/18 09:28:46;;;;;;;;;;;13.20;44.60;;;;;;5006202;28;114480;-80
2023/10/18 09:31:18;;;;;;;;;;;13.20;43.60;;;;;;5006849;28;114286;-79
2023/10/18 09:33:49;;;;;;;;;;;13.00;44.30;;;;;;5016980;28;116143;-79
2023/10/18 09:36:23;;;;;;;;;;;13.20;44.20;;;;;;5024912;28;115234;-80
2023/10/18 09:38:51;;;;;;;;;;;13.20;44.50;;;;;;5025262;28;114503;-79
2023/10/18 09:41:18;;;;;;;;;;;13.30;44.60;;;;;;5026234;27;114179;-80
2023/10/18 09:43:48;;;;;;;;;;;13.40;44.60;;;;;;5025035;28;114371;-80
2023/10/18 09:46:15;;;;;;;;;;;13.50;44.60;;;;;;5026174;28;114655;-80
2023/10/18 09:48:44;;;;;;;;;;;13.50;44.60;;;;;;5026220;27;114453;-80
2023/10/18 09:51:15;;;;;;;;;;;13.60;44.80;;;;;;5025232;28;114605;-79
2023/10/18 09:53:42;;;;;;;;;;;13.70;44.70;;;;;;5023908;28;115416;-80
2023/10/18 09:56:12;;;;;;;;;;;13.80;43.50;;;;;;5028646;27;114625;-80
2023/10/18 09:58:44;;;;;;;;;;;13.70;43.30;;;;;;5031166;27;114412;-80
2023/10/18 10:04:12;;;;;;;;;;;13.40;43.90;;;;;;5010613;28;114854;-79
2023/10/18 10:06:45;;;;;;;;;;;13.50;43.80;;;;;;4992045;28;114641;-79
2023/10/18 10:09:13;;;;;;;;;;;13.60;43.90;;;;;;5010165;28;114311;-79
2023/10/18 10:11:47;;;;;;;;;;;13.60;43.80;;;;;;5010398;28;114359;-80
2023/10/18 10:14:17;;;;;;;;;;;13.60;43.70;;;;;;5027860;28;114968;-80
2023/10/18 10:16:52;;;;;;;;;;;13.60;43.60;;;;;;5028015;27;117057;-79
2023/10/18 10:19:24;;;;;;;;;;;13.60;43.60;;;;;;5028077;28;114342;-79
2023/10/18 10:21:52;;;;;;;;;;;13.60;44.10;;;;;;5027251;28;114505;-80
2023/10/18 10:24:31;;;;;;;;;;;13.70;44.20;;;;;;5027309;28;114801;-80
2023/10/18 10:32:49;;;;;;;;;;;13.50;41.50;;;;;;5009270;28;114313;-78
2023/10/18 10:35:17;;;;;;;;;;;13.20;42.60;;;;;;5007459;28;114852;-79
2023/10/18 10:37:45;;;;;;;;;;;13.20;43.50;;;;;;5008824;28;114597;-79
2023/10/18 10:43:03;;;;;;;;;;;13.50;44.00;;;;;;5005726;28;114422;-79
2023/10/18 10:45:35;;;;;;;;;;;13.60;44.00;;;;;;5021275;28;115794;-78
2023/10/18 10:50:56;;;;;;;;;;;13.80;43.10;;;;;;5021311;28;114621;-80
2023/10/18 10:53:30;;;;;;;;;;;13.70;43.50;;;;;;5029414;28;114432;-79
2023/10/18 10:56:01;;;;;;;;;;;13.70;43.80;;;;;;5015201;28;116074;-81
2023/10/18 10:58:38;;;;;;;;;;;13.80;43.60;;;;;;5024024;28;114794;-81
2023/10/18 11:01:06;;;;;;;;;;;13.90;43.70;;;;;;5015790;28;114109;-81
2023/10/18 11:03:46;;;;;;;;;;;13.90;43.80;;;;;;5009808;28;114262;-80
2023/10/18 11:06:19;;;;;;;;;;;14.00;43.60;;;;;;5007202;28;115836;-80
2023/10/18 11:08:52;;;;;;;;;;;14.10;43.90;;;;;;5014577;28;114566;-80
2023/10/18 11:11:22;;;;;;;;;;;14.10;43.90;;;;;;5008452;28;114388;-80
2023/10/18 11:13:50;;;;;;;;;;;14.10;43.50;;;;;;5008806;28;114443;-79
2023/10/18 11:16:17;;;;;;;;;;;14.00;43.70;;;;;;5022305;28;114939;-80
2023/10/18 11:18:48;;;;;;;;;;;14.10;43.90;;;;;;5027331;28;114686;-80
2023/10/18 11:21:19;;;;;;;;;;;14.10;44.00;;;;;;5027640;28;114199;-80
2023/10/18 11:23:49;;;;;;;;;;;14.20;44.10;;;;;;5021030;28;114237;-81
2023/10/18 11:26:24;;;;;;;;;;;14.20;44.10;;;;;;5022529;27;114975;-80
2023/10/18 11:28:55;;;;;;;;;;;14.20;43.60;;;;;;5023557;28;115030;-80
2023/10/18 11:31:26;;;;;;;;;;;14.20;43.60;;;;;;4992375;28;114419;-80
2023/10/18 11:36:21;;;;;;;;;;;14.20;43.80;;;;;;5006983;28;114862;-81
2023/10/18 11:41:36;;;;;;;;;;;14.20;43.30;;;;;;5012210;28;114273;-80
2023/10/18 11:44:06;;;;;;;;;;;14.10;43.30;;;;;;5008561;28;114262;-80
2023/10/18 11:47:05;;;;;;;;;;;14.00;43.20;;;;;;5009229;28;114884;-81
2023/10/18 11:49:34;;;;;;;;;;;14.00;43.50;;;;;;5026656;28;115513;-80
2023/10/18 11:52:01;;;;;;;;;;;14.00;43.70;;;;;;5021058;28;114549;-80
2023/10/18 11:54:29;;;;;;;;;;;14.10;43.60;;;;;;5007788;28;114425;-79
2023/10/18 11:56:56;;;;;;;;;;;14.10;43.70;;;;;;5007242;28;116329;-80
2023/10/18 11:59:24;;;;;;;;;;;14.10;43.90;;;;;;5006453;28;114551;-80
2023/10/18 12:01:57;;;;;;;;;;;14.20;43.80;;;;;;5008096;28;114332;-79
2023/10/18 12:04:28;;;;;;;;;;;14.20;43.70;;;;;;5015371;28;114359;-79
2023/10/18 12:06:58;;;;;;;;;;;14.10;42.80;;;;;;5026129;28;114937;-80
2023/10/18 12:09:25;;;;;;;;;;;14.00;43.30;;;;;;5017183;28;114813;-80
2023/10/18 12:11:53;;;;;;;;;;;14.00;43.60;;;;;;5027590;28;114270;-82
2023/10/18 12:14:22;;;;;;;;;;;14.00;43.60;;;;;;5028518;27;114522;-81
2023/10/18 12:16:50;;;;;;;;;;;14.00;43.40;;;;;;5027119;28;115458;-81
2023/10/18 12:19:18;;;;;;;;;;;14.00;42.70;;;;;;5026890;28;114601;-80
2023/10/18 12:21:54;;;;;;;;;;;13.90;41.90;;;;;;5020323;28;114419;-79
2023/10/18 12:24:22;;;;;;;;;;;13.70;43.00;;;;;;5007903;28;114098;-80
2023/10/18 12:26:54;;;;;;;;;;;13.70;43.30;;;;;;5005234;28;114806;-82
2023/10/18 12:29:27;;;;;;;;;;;13.80;42.90;;;;;;4998861;28;115069;-81
2023/10/18 12:31:57;;;;;;;;;;;13.70;43.00;;;;;;5008119;28;114378;-81
2023/10/18 12:34:30;;;;;;;;;;;13.70;42.80;;;;;;5022967;27;114331;-81
2023/10/18 12:36:58;;;;;;;;;;;13.60;40.90;;;;;;5006881;28;114953;-81
2023/10/18 12:39:25;;;;;;;;;;;13.30;41.30;;;;;;5006886;28;114568;-80
2023/10/18 12:41:53;;;;;;;;;;;13.20;41.60;;;;;;5008323;28;114426;-81
2023/10/18 12:44:25;;;;;;;;;;;13.10;41.90;;;;;;5008348;28;114354;-81
2023/10/18 12:46:55;;;;;;;;;;;13.10;41.30;;;;;;5007939;28;114801;-81
2023/10/18 12:49:22;;;;;;;;;;;13.00;41.90;;;;;;5007479;28;114636;-81
2023/10/18 12:52:04;;;;;;;;;;;13.10;42.30;;;;;;5022770;27;114535;-79
2023/10/18 12:54:34;;;;;;;;;;;13.20;42.10;;;;;;5007378;28;114262;-79
2023/10/18 12:57:13;;;;;;;;;;;13.20;42.20;;;;;;5019239;28;115311;-81
2023/10/18 13:00:00;;;;;;;;;;;13.20;41.50;;;;;;5027610;27;117227;-81
2023/10/18 13:02:50;;;;;;;;;;;13.20;42.20;;;;;;5026164;28;114336;-80
2023/10/18 13:05:18;;;;;;;;;;;13.30;41.80;;;;;;5007373;28;114338;-80
2023/10/18 13:07:46;;;;;;;;;;;13.20;41.80;;;;;;5005853;28;115001;-80
2023/10/18 13:10:16;;;;;;;;;;;13.20;41.40;;;;;;5024290;28;114561;-80
2023/10/18 13:12:51;;;;;;;;;;;13.10;41.10;;;;;;5024789;27;114444;-80
2023/10/18 13:15:18;;;;;;;;;;;13.00;41.40;;;;;;5016682;28;114408;-80
2023/10/18 13:17:45;;;;;;;;;;;13.00;41.90;;;;;;5016723;28;115230;-80
2023/10/18 13:20:15;;;;;;;;;;;12.90;41.30;;;;;;5033985;27;115681;-80
2023/10/18 13:22:42;;;;;;;;;;;12.90;41.90;;;;;;5011498;27;114297;-81
2023/10/18 13:25:25;;;;;;;;;;;12.90;41.20;;;;;;5020723;27;114352;-80
2023/10/18 13:27:53;;;;;;;;;;;12.90;41.70;;;;;;5023693;28;114841;-80
2023/10/18 13:30:33;;;;;;;;;;;12.90;42.00;;;;;;5037932;27;114868;-80
2023/10/18 13:33:01;;;;;;;;;;;12.90;42.20;;;;;;5017128;28;114422;-81
2023/10/18 13:35:29;;;;;;;;;;;13.10;42.30;;;;;;5028680;27;115926;-80
2023/10/18 13:37:56;;;;;;;;;;;13.20;42.50;;;;;;5034685;27;118263;-80
2023/10/18 13:40:23;;;;;;;;;;;13.30;42.70;;;;;;5004858;28;114622;-81
2023/10/18 13:42:51;;;;;;;;;;;13.40;42.80;;;;;;5009980;28;114465;-79
2023/10/18 13:45:19;;;;;;;;;;;13.50;42.80;;;;;;5006916;28;114228;-81
2023/10/18 13:47:46;;;;;;;;;;;13.50;42.80;;;;;;5005994;28;114883;-81
2023/10/18 13:50:17;;;;;;;;;;;13.60;42.90;;;;;;5012823;28;114532;-80
2023/10/18 13:52:46;;;;;;;;;;;13.60;43.00;;;;;;5017810;28;114674;-81
2023/10/18 13:55:14;;;;;;;;;;;13.60;43.00;;;;;;5013326;28;114228;-80
2023/10/18 13:57:41;;;;;;;;;;;13.70;43.10;;;;;;5005286;28;117031;-80
2023/10/18 14:00:08;;;;;;;;;;;13.60;43.20;;;;;;5015309;28;116251;-81
2023/10/18 14:02:38;;;;;;;;;;;13.70;43.30;;;;;;5036229;27;114221;-81
2023/10/18 14:05:07;;;;;;;;;;;13.70;43.30;;;;;;5012330;28;114664;-81
2023/10/18 14:07:37;;;;;;;;;;;13.70;43.40;;;;;;5025059;28;116468;-81
2023/10/18 14:10:19;;;;;;;;;;;13.70;43.50;;;;;;5010571;28;114564;-79
2023/10/18 14:12:49;;;;;;;;;;;13.70;43.30;;;;;;5006316;28;114599;-80
2023/10/18 14:15:22;;;;;;;;;;;13.70;43.50;;;;;;5021721;28;114354;-80
2023/10/18 14:17:52;;;;;;;;;;;13.70;43.60;;;;;;5006190;28;114947;-80
2023/10/18 14:20:25;;;;;;;;;;;13.70;43.70;;;;;;5005767;28;114608;-79
2023/10/18 14:22:55;;;;;;;;;;;13.70;43.70;;;;;;5009246;28;115274;-80
2023/10/18 14:25:23;;;;;;;;;;;13.70;43.80;;;;;;5022485;28;114354;-79
2023/10/18 14:27:51;;;;;;;;;;;13.70;43.70;;;;;;5007833;28;115419;-80
2023/10/18 14:30:19;;;;;;;;;;;13.70;43.80;;;;;;5010050;28;114524;-80
2023/10/18 14:32:46;;;;;;;;;;;13.70;43.70;;;;;;5012844;28;114763;-81
2023/10/18 14:35:13;;;;;;;;;;;13.70;43.80;;;;;;5011034;28;114282;-79
2023/10/18 14:37:40;;;;;;;;;;;13.60;43.60;;;;;;5039534;27;117487;-80
2023/10/18 14:40:07;;;;;;;;;;;13.60;43.80;;;;;;5025920;28;115139;-81
2023/10/18 14:42:35;;;;;;;;;;;13.50;43.90;;;;;;5002945;28;114348;-80
2023/10/18 14:45:03;;;;;;;;;;;13.60;43.90;;;;;;5022705;28;114532;-80
2023/10/18 14:47:33;;;;;;;;;;;13.50;43.30;;;;;;5008238;28;116276;-81
2023/10/18 14:50:03;;;;;;;;;;;13.40;43.40;;;;;;5008935;28;115132;-81
2023/10/18 14:52:30;;;;;;;;;;;13.30;43.40;;;;;;5008624;28;114256;-79
2023/10/18 14:54:57;;;;;;;;;;;13.30;43.60;;;;;;5009623;28;114408;-79
2023/10/18 14:57:24;;;;;;;;;;;13.20;42.40;;;;;;5024084;28;115567;-81
2023/10/18 14:59:51;;;;;;;;;;;13.00;42.90;;;;;;5028866;27;114836;-81
2023/10/18 15:02:18;;;;;;;;;;;12.90;43.10;;;;;;5029564;27;114545;-81
2023/10/18 15:04:49;;;;;;;;;;;12.70;43.00;;;;;;5029671;28;114164;-80
2023/10/18 15:07:17;;;;;;;;;;;12.70;43.30;;;;;;5026371;28;115050;-80
2023/10/18 15:09:44;;;;;;;;;;;12.70;43.50;;;;;;5015496;28;114623;-79
2023/10/18 15:12:11;;;;;;;;;;;12.60;43.50;;;;;;5009007;28;114245;-80
2023/10/18 15:14:41;;;;;;;;;;;12.60;43.70;;;;;;5009511;28;114171;-80
2023/10/18 15:17:08;;;;;;;;;;;12.60;43.50;;;;;;5008199;28;115235;-80
2023/10/18 15:19:35;;;;;;;;;;;12.50;43.80;;;;;;5007990;28;114629;-80
2023/10/18 15:22:03;;;;;;;;;;;12.50;43.90;;;;;;5008562;28;114200;-81
2023/10/18 15:24:40;;;;;;;;;;;12.50;44.00;;;;;;5009029;28;114275;-80
2023/10/18 15:27:12;;;;;;;;;;;12.50;43.90;;;;;;5007727;28;116141;-79